sensor_id;sensor_type;location;lat;lon;timestamp;temperature;humidity
7399;DHT22;3740;50.700;7.184;2022-11-15T00:00:51;12.40;99.90
7399;DHT22;3740;50.700;7.184;2022-11-15T00:03:19;12.40;99.90
7399;DHT22;3740;50.700;7.184;2022-11-15T00:05:46;12.50;99.90
7399;DHT22;3740;50.700;7.184;2022-11-15T00:08:12;12.50;99.90
7399;DHT22;3740;50.700;7.184;2022-11-15T00:10:38;12.50;99.90
7399;DHT22;3740;50.700;7.184;2022-11-15T00:13:08;12.60;99.90
7399;DHT22;3740;50.700;7.184;2022-11-15T00:15:39;12.50;99.90
7399;DHT22;3740;50.700;7.184;2022-11-15T00:18:05;12.40;99.90
7399;DHT22;3740;50.700;7.184;2022-11-15T00:20:35;12.40;99.90
7399;DHT22;3740;50.700;7.184;2022-11-15T00:23:04;12.40;99.90
7399;DHT22;3740;50.700;7.184;2022-11-15T00:25:31;12.30;99.90
7399;DHT22;3740;50.700;7.184;2022-11-15T00:27:58;12.30;99.90
7399;DHT22;3740;50.700;7.184;2022-11-15T00:30:24;12.40;99.90
7399;DHT22;3740;50.700;7.184;2022-11-15T00:32:51;12.40;99.90
7399;DHT22;3740;50.700;7.184;2022-11-15T00:35:18;12.40;99.90
7399;DHT22;3740;50.700;7.184;2022-11-15T00:37:43;12.40;99.90
7399;DHT22;3740;50.700;7.184;2022-11-15T00:40:10;12.40;99.90
7399;DHT22;3740;50.700;7.184;2022-11-15T00:42:38;12.40;99.90
7399;DHT22;3740;50.700;7.184;2022-11-15T00:45:04;12.30;99.90
7399;DHT22;3740;50.700;7.184;2022-11-15T00:47:29;12.30;99.90
7399;DHT22;3740;50.700;7.184;2022-11-15T00:49:55;12.40;99.90
7399;DHT22;3740;50.700;7.184;2022-11-15T00:52:20;12.40;99.90
7399;DHT22;3740;50.700;7.184;2022-11-15T00:54:46;12.40;99.90
7399;DHT22;3740;50.700;7.184;2022-11-15T00:57:11;12.50;99.90
7399;DHT22;3740;50.700;7.184;2022-11-15T00:59:37;12.50;99.90
7399;DHT22;3740;50.700;7.184;2022-11-15T01:02:02;12.60;99.90
7399;DHT22;3740;50.700;7.184;2022-11-15T01:04:28;12.60;99.90
7399;DHT22;3740;50.700;7.184;2022-11-15T01:06:54;12.70;99.90
7399;DHT22;3740;50.700;7.184;2022-11-15T01:09:22;12.70;99.90
7399;DHT22;3740;50.700;7.184;2022-11-15T01:11:47;12.70;99.90
7399;DHT22;3740;50.700;7.184;2022-11-15T01:14:14;12.70;99.90
7399;DHT22;3740;50.700;7.184;2022-11-15T01:16:40;12.70;99.90
7399;DHT22;3740;50.700;7.184;2022-11-15T01:19:06;12.80;99.90
7399;DHT22;3740;50.700;7.184;2022-11-15T01:21:32;12.90;99.90
7399;DHT22;3740;50.700;7.184;2022-11-15T01:23:58;13.00;99.90
7399;DHT22;3740;50.700;7.184;2022-11-15T01:26:24;13.00;99.90
7399;DHT22;3740;50.700;7.184;2022-11-15T01:28:50;13.00;99.90
7399;DHT22;3740;50.700;7.184;2022-11-15T01:31:19;13.00;99.90
7399;DHT22;3740;50.700;7.184;2022-11-15T01:33:46;13.00;99.90
7399;DHT22;3740;50.700;7.184;2022-11-15T01:36:17;13.00;99.90
7399;DHT22;3740;50.700;7.184;2022-11-15T01:38:43;13.10;99.90
7399;DHT22;3740;50.700;7.184;2022-11-15T01:41:21;13.10;99.90
7399;DHT22;3740;50.700;7.184;2022-11-15T01:43:49;13.10;99.90
7399;DHT22;3740;50.700;7.184;2022-11-15T01:46:33;13.00;99.90
7399;DHT22;3740;50.700;7.184;2022-11-15T01:49:03;13.00;99.90
7399;DHT22;3740;50.700;7.184;2022-11-15T01:51:32;13.00;99.90
7399;DHT22;3740;50.700;7.184;2022-11-15T01:54:04;13.00;99.90
7399;DHT22;3740;50.700;7.184;2022-11-15T01:56:39;13.00;99.90
7399;DHT22;3740;50.700;7.184;2022-11-15T01:59:08;13.00;99.90
7399;DHT22;3740;50.700;7.184;2022-11-15T02:01:35;12.90;99.90
7399;DHT22;3740;50.700;7.184;2022-11-15T02:04:06;12.90;99.90
7399;DHT22;3740;50.700;7.184;2022-11-15T02:06:35;12.90;99.90
7399;DHT22;3740;50.700;7.184;2022-11-15T02:09:02;12.90;99.90
7399;DHT22;3740;50.700;7.184;2022-11-15T02:11:28;12.90;99.90
7399;DHT22;3740;50.700;7.184;2022-11-15T02:13:54;12.90;99.90
7399;DHT22;3740;50.700;7.184;2022-11-15T02:19:02;12.90;99.90
7399;DHT22;3740;50.700;7.184;2022-11-15T02:24:30;12.90;99.90
7399;DHT22;3740;50.700;7.184;2022-11-15T02:27:38;12.90;99.90
7399;DHT22;3740;50.700;7.184;2022-11-15T02:30:41;12.90;99.90
7399;DHT22;3740;50.700;7.184;2022-11-15T02:36:15;12.80;99.90
7399;DHT22;3740;50.700;7.184;2022-11-15T02:39:03;12.80;99.90
7399;DHT22;3740;50.700;7.184;2022-11-15T02:41:51;12.90;99.90
7399;DHT22;3740;50.700;7.184;2022-11-15T02:44:32;13.00;99.90
7399;DHT22;3740;50.700;7.184;2022-11-15T02:47:07;13.00;99.90
7399;DHT22;3740;50.700;7.184;2022-11-15T02:49:41;13.00;99.90
7399;DHT22;3740;50.700;7.184;2022-11-15T02:52:08;13.00;99.90
7399;DHT22;3740;50.700;7.184;2022-11-15T02:54:34;13.10;99.90
7399;DHT22;3740;50.700;7.184;2022-11-15T02:57:16;13.20;99.90
7399;DHT22;3740;50.700;7.184;2022-11-15T03:00:03;13.10;99.90
7399;DHT22;3740;50.700;7.184;2022-11-15T03:03:05;13.10;99.90
7399;DHT22;3740;50.700;7.184;2022-11-15T03:11:18;13.10;99.90
7399;DHT22;3740;50.700;7.184;2022-11-15T03:19:19;13.10;99.90
7399;DHT22;3740;50.700;7.184;2022-11-15T03:21:47;13.10;99.90
7399;DHT22;3740;50.700;7.184;2022-11-15T03:24:14;13.10;99.90
7399;DHT22;3740;50.700;7.184;2022-11-15T03:26:44;13.10;99.90
7399;DHT22;3740;50.700;7.184;2022-11-15T03:29:14;13.20;99.90
7399;DHT22;3740;50.700;7.184;2022-11-15T03:31:45;13.20;99.90
7399;DHT22;3740;50.700;7.184;2022-11-15T03:36:52;13.10;99.90
7399;DHT22;3740;50.700;7.184;2022-11-15T03:39:20;13.10;99.90
7399;DHT22;3740;50.700;7.184;2022-11-15T03:47:38;13.10;99.90
7399;DHT22;3740;50.700;7.184;2022-11-15T03:50:10;13.00;99.90
7399;DHT22;3740;50.700;7.184;2022-11-15T03:52:39;13.00;99.90
7399;DHT22;3740;50.700;7.184;2022-11-15T03:55:07;13.00;99.90
7399;DHT22;3740;50.700;7.184;2022-11-15T03:57:33;13.00;99.90
7399;DHT22;3740;50.700;7.184;2022-11-15T03:59:59;13.00;99.90
7399;DHT22;3740;50.700;7.184;2022-11-15T04:02:25;13.00;99.90
7399;DHT22;3740;50.700;7.184;2022-11-15T04:04:51;13.00;99.90
7399;DHT22;3740;50.700;7.184;2022-11-15T04:07:17;13.00;99.90
7399;DHT22;3740;50.700;7.184;2022-11-15T04:09:43;13.00;99.90
7399;DHT22;3740;50.700;7.184;2022-11-15T04:12:31;13.00;99.90
7399;DHT22;3740;50.700;7.184;2022-11-15T04:15:05;13.00;99.90
7399;DHT22;3740;50.700;7.184;2022-11-15T04:17:48;12.90;99.90
7399;DHT22;3740;50.700;7.184;2022-11-15T04:20:16;12.90;99.90
7399;DHT22;3740;50.700;7.184;2022-11-15T04:23:01;12.90;99.90
7399;DHT22;3740;50.700;7.184;2022-11-15T04:25:49;12.80;99.90
7399;DHT22;3740;50.700;7.184;2022-11-15T04:28:15;12.80;99.90
7399;DHT22;3740;50.700;7.184;2022-11-15T04:30:40;12.70;99.90
7399;DHT22;3740;50.700;7.184;2022-11-15T04:33:07;12.70;99.90
7399;DHT22;3740;50.700;7.184;2022-11-15T04:35:33;12.70;99.90
7399;DHT22;3740;50.700;7.184;2022-11-15T04:37:59;12.70;99.90
7399;DHT22;3740;50.700;7.184;2022-11-15T04:40:24;12.70;99.90
7399;DHT22;3740;50.700;7.184;2022-11-15T04:42:51;12.80;99.90
7399;DHT22;3740;50.700;7.184;2022-11-15T04:45:17;12.80;99.90
7399;DHT22;3740;50.700;7.184;2022-11-15T04:47:44;12.80;99.90
7399;DHT22;3740;50.700;7.184;2022-11-15T04:50:13;12.90;99.90
7399;DHT22;3740;50.700;7.184;2022-11-15T04:52:51;12.90;99.90
7399;DHT22;3740;50.700;7.184;2022-11-15T04:55:17;12.90;99.90
7399;DHT22;3740;50.700;7.184;2022-11-15T04:57:43;13.00;99.90
7399;DHT22;3740;50.700;7.184;2022-11-15T05:00:15;13.00;99.90
7399;DHT22;3740;50.700;7.184;2022-11-15T05:02:40;13.00;99.90
7399;DHT22;3740;50.700;7.184;2022-11-15T05:05:25;13.00;99.90
7399;DHT22;3740;50.700;7.184;2022-11-15T05:07:51;13.10;99.90
7399;DHT22;3740;50.700;7.184;2022-11-15T05:10:16;13.10;99.90
7399;DHT22;3740;50.700;7.184;2022-11-15T05:12:42;13.10;99.90
7399;DHT22;3740;50.700;7.184;2022-11-15T05:15:09;13.00;99.90
7399;DHT22;3740;50.700;7.184;2022-11-15T05:17:34;13.00;99.90
7399;DHT22;3740;50.700;7.184;2022-11-15T05:20:00;13.00;99.90
7399;DHT22;3740;50.700;7.184;2022-11-15T05:22:27;13.00;99.90
7399;DHT22;3740;50.700;7.184;2022-11-15T05:24:53;13.10;99.90
7399;DHT22;3740;50.700;7.184;2022-11-15T05:27:19;13.10;99.90
7399;DHT22;3740;50.700;7.184;2022-11-15T05:29:45;13.00;99.90
7399;DHT22;3740;50.700;7.184;2022-11-15T05:32:11;13.00;99.90
7399;DHT22;3740;50.700;7.184;2022-11-15T05:34:37;13.00;99.90
7399;DHT22;3740;50.700;7.184;2022-11-15T05:37:03;12.90;99.90
7399;DHT22;3740;50.700;7.184;2022-11-15T05:39:29;12.90;99.90
7399;DHT22;3740;50.700;7.184;2022-11-15T05:42:09;12.90;99.90
7399;DHT22;3740;50.700;7.184;2022-11-15T05:44:36;12.80;99.90
7399;DHT22;3740;50.700;7.184;2022-11-15T05:47:04;12.80;99.90
7399;DHT22;3740;50.700;7.184;2022-11-15T05:49:36;12.70;99.90
7399;DHT22;3740;50.700;7.184;2022-11-15T05:52:05;12.70;99.90
7399;DHT22;3740;50.700;7.184;2022-11-15T05:54:35;12.70;99.90
7399;DHT22;3740;50.700;7.184;2022-11-15T05:57:03;12.70;99.90
7399;DHT22;3740;50.700;7.184;2022-11-15T05:59:30;12.70;99.90
7399;DHT22;3740;50.700;7.184;2022-11-15T06:01:57;12.60;99.90
7399;DHT22;3740;50.700;7.184;2022-11-15T06:04:22;12.60;99.90
7399;DHT22;3740;50.700;7.184;2022-11-15T06:06:49;12.60;99.90
7399;DHT22;3740;50.700;7.184;2022-11-15T06:09:14;12.60;99.90
7399;DHT22;3740;50.700;7.184;2022-11-15T06:11:40;12.60;99.90
7399;DHT22;3740;50.700;7.184;2022-11-15T06:14:05;12.60;99.90
7399;DHT22;3740;50.700;7.184;2022-11-15T06:16:31;12.60;99.90
7399;DHT22;3740;50.700;7.184;2022-11-15T06:18:57;12.60;99.90
7399;DHT22;3740;50.700;7.184;2022-11-15T06:21:22;12.60;99.90
7399;DHT22;3740;50.700;7.184;2022-11-15T06:23:48;12.70;99.90
7399;DHT22;3740;50.700;7.184;2022-11-15T06:26:13;12.70;99.90
7399;DHT22;3740;50.700;7.184;2022-11-15T06:28:39;12.70;99.90
7399;DHT22;3740;50.700;7.184;2022-11-15T06:31:06;12.60;99.90
7399;DHT22;3740;50.700;7.184;2022-11-15T06:33:32;12.60;99.90
7399;DHT22;3740;50.700;7.184;2022-11-15T06:36:05;12.60;99.90
7399;DHT22;3740;50.700;7.184;2022-11-15T06:38:31;12.60;99.90
7399;DHT22;3740;50.700;7.184;2022-11-15T06:41:05;12.50;99.90
7399;DHT22;3740;50.700;7.184;2022-11-15T06:43:33;12.60;99.90
7399;DHT22;3740;50.700;7.184;2022-11-15T06:46:00;12.60;99.90
7399;DHT22;3740;50.700;7.184;2022-11-15T06:48:28;12.50;99.90
7399;DHT22;3740;50.700;7.184;2022-11-15T06:50:56;12.50;99.90
7399;DHT22;3740;50.700;7.184;2022-11-15T06:53:23;12.40;99.90
7399;DHT22;3740;50.700;7.184;2022-11-15T06:55:49;12.40;99.90
7399;DHT22;3740;50.700;7.184;2022-11-15T06:58:15;12.30;99.90
7399;DHT22;3740;50.700;7.184;2022-11-15T07:00:40;12.30;99.90
7399;DHT22;3740;50.700;7.184;2022-11-15T07:03:06;12.30;99.90
7399;DHT22;3740;50.700;7.184;2022-11-15T07:05:32;12.30;99.90
7399;DHT22;3740;50.700;7.184;2022-11-15T07:07:58;12.30;99.90
7399;DHT22;3740;50.700;7.184;2022-11-15T07:10:25;12.40;99.90
7399;DHT22;3740;50.700;7.184;2022-11-15T07:12:53;12.30;99.90
7399;DHT22;3740;50.700;7.184;2022-11-15T07:15:23;12.40;99.90
7399;DHT22;3740;50.700;7.184;2022-11-15T07:17:49;12.40;99.90
7399;DHT22;3740;50.700;7.184;2022-11-15T07:20:15;12.30;99.90
7399;DHT22;3740;50.700;7.184;2022-11-15T07:22:41;12.20;99.90
7399;DHT22;3740;50.700;7.184;2022-11-15T07:25:07;12.30;99.90
7399;DHT22;3740;50.700;7.184;2022-11-15T07:27:34;12.30;99.90
7399;DHT22;3740;50.700;7.184;2022-11-15T07:30:01;12.30;99.90
7399;DHT22;3740;50.700;7.184;2022-11-15T07:32:26;12.20;99.90
7399;DHT22;3740;50.700;7.184;2022-11-15T07:34:52;12.20;99.90
7399;DHT22;3740;50.700;7.184;2022-11-15T07:37:18;12.20;99.90
7399;DHT22;3740;50.700;7.184;2022-11-15T07:39:44;12.30;99.90
7399;DHT22;3740;50.700;7.184;2022-11-15T07:42:09;12.30;99.90
7399;DHT22;3740;50.700;7.184;2022-11-15T07:44:54;12.40;99.90
7399;DHT22;3740;50.700;7.184;2022-11-15T07:47:20;12.50;99.90
7399;DHT22;3740;50.700;7.184;2022-11-15T07:49:46;12.50;99.90
7399;DHT22;3740;50.700;7.184;2022-11-15T07:52:12;12.50;99.90
7399;DHT22;3740;50.700;7.184;2022-11-15T07:54:38;12.50;99.90
7399;DHT22;3740;50.700;7.184;2022-11-15T07:57:04;12.50;99.90
7399;DHT22;3740;50.700;7.184;2022-11-15T07:59:30;12.60;99.90
7399;DHT22;3740;50.700;7.184;2022-11-15T08:01:55;12.60;99.90
7399;DHT22;3740;50.700;7.184;2022-11-15T08:04:21;12.60;99.90
7399;DHT22;3740;50.700;7.184;2022-11-15T08:06:46;12.70;99.90
7399;DHT22;3740;50.700;7.184;2022-11-15T08:09:12;12.70;99.90
7399;DHT22;3740;50.700;7.184;2022-11-15T08:11:38;12.70;99.90
7399;DHT22;3740;50.700;7.184;2022-11-15T08:14:04;12.60;99.90
7399;DHT22;3740;50.700;7.184;2022-11-15T08:16:31;12.70;99.90
7399;DHT22;3740;50.700;7.184;2022-11-15T08:18:57;12.70;99.90
7399;DHT22;3740;50.700;7.184;2022-11-15T08:21:23;12.70;99.90
7399;DHT22;3740;50.700;7.184;2022-11-15T08:23:48;12.70;99.90
7399;DHT22;3740;50.700;7.184;2022-11-15T08:26:14;12.80;99.90
7399;DHT22;3740;50.700;7.184;2022-11-15T08:28:40;12.80;99.90
7399;DHT22;3740;50.700;7.184;2022-11-15T08:31:06;12.80;99.90
7399;DHT22;3740;50.700;7.184;2022-11-15T08:33:32;12.80;99.90
7399;DHT22;3740;50.700;7.184;2022-11-15T08:35:59;12.80;99.90
7399;DHT22;3740;50.700;7.184;2022-11-15T08:38:26;12.90;99.90
7399;DHT22;3740;50.700;7.184;2022-11-15T08:41:03;12.90;99.90
7399;DHT22;3740;50.700;7.184;2022-11-15T08:43:29;12.90;99.90
7399;DHT22;3740;50.700;7.184;2022-11-15T08:45:56;12.90;99.90
7399;DHT22;3740;50.700;7.184;2022-11-15T08:48:22;13.00;99.90
7399;DHT22;3740;50.700;7.184;2022-11-15T08:50:47;13.00;99.90
7399;DHT22;3740;50.700;7.184;2022-11-15T08:53:13;13.00;99.90
7399;DHT22;3740;50.700;7.184;2022-11-15T08:55:40;13.10;99.90
7399;DHT22;3740;50.700;7.184;2022-11-15T08:58:06;13.20;99.90
7399;DHT22;3740;50.700;7.184;2022-11-15T09:00:32;13.20;99.90
7399;DHT22;3740;50.700;7.184;2022-11-15T09:02:58;13.20;99.90
7399;DHT22;3740;50.700;7.184;2022-11-15T09:05:25;13.30;99.90
7399;DHT22;3740;50.700;7.184;2022-11-15T09:07:54;13.30;99.90
7399;DHT22;3740;50.700;7.184;2022-11-15T09:10:21;13.30;99.90
7399;DHT22;3740;50.700;7.184;2022-11-15T09:12:46;13.40;99.90
7399;DHT22;3740;50.700;7.184;2022-11-15T09:15:14;13.50;99.90
7399;DHT22;3740;50.700;7.184;2022-11-15T09:17:40;13.50;99.90
7399;DHT22;3740;50.700;7.184;2022-11-15T09:20:06;13.50;99.90
7399;DHT22;3740;50.700;7.184;2022-11-15T09:22:32;13.60;99.90
7399;DHT22;3740;50.700;7.184;2022-11-15T09:24:58;13.60;99.90
7399;DHT22;3740;50.700;7.184;2022-11-15T09:27:30;13.70;99.90
7399;DHT22;3740;50.700;7.184;2022-11-15T09:29:56;13.70;99.90
7399;DHT22;3740;50.700;7.184;2022-11-15T09:32:21;13.80;99.90
7399;DHT22;3740;50.700;7.184;2022-11-15T09:34:50;13.90;99.90
7399;DHT22;3740;50.700;7.184;2022-11-15T09:37:16;14.00;99.90
7399;DHT22;3740;50.700;7.184;2022-11-15T09:39:41;14.10;99.90
7399;DHT22;3740;50.700;7.184;2022-11-15T09:45:01;15.00;99.90
7399;DHT22;3740;50.700;7.184;2022-11-15T09:50:15;16.70;99.90
7399;DHT22;3740;50.700;7.184;2022-11-15T09:52:44;17.10;99.90
7399;DHT22;3740;50.700;7.184;2022-11-15T09:55:11;17.60;99.90
7399;DHT22;3740;50.700;7.184;2022-11-15T09:57:53;18.50;99.90
7399;DHT22;3740;50.700;7.184;2022-11-15T10:00:37;19.30;99.90
7399;DHT22;3740;50.700;7.184;2022-11-15T10:03:19;19.60;99.90
7399;DHT22;3740;50.700;7.184;2022-11-15T10:05:49;19.50;99.90
7399;DHT22;3740;50.700;7.184;2022-11-15T10:11:02;19.40;99.90
7399;DHT22;3740;50.700;7.184;2022-11-15T10:13:32;19.30;99.30
7399;DHT22;3740;50.700;7.184;2022-11-15T10:16:27;20.00;99.00
7399;DHT22;3740;50.700;7.184;2022-11-15T10:19:15;20.50;97.60
7399;DHT22;3740;50.700;7.184;2022-11-15T10:24:13;20.90;95.50
7399;DHT22;3740;50.700;7.184;2022-11-15T10:26:47;21.20;95.10
7399;DHT22;3740;50.700;7.184;2022-11-15T10:29:19;21.50;94.90
7399;DHT22;3740;50.700;7.184;2022-11-15T10:31:45;22.10;93.10
7399;DHT22;3740;50.700;7.184;2022-11-15T10:34:20;22.40;92.60
7399;DHT22;3740;50.700;7.184;2022-11-15T10:36:57;22.90;91.70
7399;DHT22;3740;50.700;7.184;2022-11-15T10:39:23;22.80;91.70
7399;DHT22;3740;50.700;7.184;2022-11-15T10:41:49;22.80;91.10
7399;DHT22;3740;50.700;7.184;2022-11-15T10:44:26;23.10;90.90
7399;DHT22;3740;50.700;7.184;2022-11-15T10:49:25;23.10;90.50
7399;DHT22;3740;50.700;7.184;2022-11-15T10:52:01;23.30;90.50
7399;DHT22;3740;50.700;7.184;2022-11-15T10:57:16;23.40;90.90
7399;DHT22;3740;50.700;7.184;2022-11-15T10:59:46;23.20;89.60
7399;DHT22;3740;50.700;7.184;2022-11-15T11:02:36;22.90;90.20
7399;DHT22;3740;50.700;7.184;2022-11-15T11:05:50;21.80;90.40
7399;DHT22;3740;50.700;7.184;2022-11-15T11:10:37;19.50;93.40
7399;DHT22;3740;50.700;7.184;2022-11-15T11:13:22;18.80;95.10
7399;DHT22;3740;50.700;7.184;2022-11-15T11:19:04;17.50;97.50
7399;DHT22;3740;50.700;7.184;2022-11-15T11:30:04;16.90;99.90
7399;DHT22;3740;50.700;7.184;2022-11-15T11:35:28;16.60;99.90
7399;DHT22;3740;50.700;7.184;2022-11-15T11:38:29;16.50;99.90
7399;DHT22;3740;50.700;7.184;2022-11-15T11:41:20;16.50;99.90
7399;DHT22;3740;50.700;7.184;2022-11-15T11:44:22;16.50;99.90
7399;DHT22;3740;50.700;7.184;2022-11-15T11:52:17;16.20;99.90
7399;DHT22;3740;50.700;7.184;2022-11-15T11:55:00;16.30;99.90
7399;DHT22;3740;50.700;7.184;2022-11-15T11:57:38;16.10;99.90
7399;DHT22;3740;50.700;7.184;2022-11-15T12:02:45;15.90;99.90
7399;DHT22;3740;50.700;7.184;2022-11-15T12:05:43;15.90;99.90
7399;DHT22;3740;50.700;7.184;2022-11-15T12:08:40;15.60;99.90
7399;DHT22;3740;50.700;7.184;2022-11-15T12:11:20;15.50;99.90
7399;DHT22;3740;50.700;7.184;2022-11-15T12:13:50;15.50;99.90
7399;DHT22;3740;50.700;7.184;2022-11-15T12:16:21;15.60;99.90
7399;DHT22;3740;50.700;7.184;2022-11-15T12:18:51;15.60;99.90
7399;DHT22;3740;50.700;7.184;2022-11-15T12:21:31;15.70;99.90
7399;DHT22;3740;50.700;7.184;2022-11-15T12:24:12;15.90;99.90
7399;DHT22;3740;50.700;7.184;2022-11-15T12:26:46;15.90;99.90
7399;DHT22;3740;50.700;7.184;2022-11-15T12:31:59;15.90;99.90
7399;DHT22;3740;50.700;7.184;2022-11-15T12:34:42;15.90;99.90
7399;DHT22;3740;50.700;7.184;2022-11-15T12:45:43;15.90;99.90
7399;DHT22;3740;50.700;7.184;2022-11-15T13:04:21;15.60;99.90
7399;DHT22;3740;50.700;7.184;2022-11-15T13:06:52;15.60;99.90
7399;DHT22;3740;50.700;7.184;2022-11-15T13:12:04;15.80;99.90
7399;DHT22;3740;50.700;7.184;2022-11-15T13:14:59;15.80;99.90
7399;DHT22;3740;50.700;7.184;2022-11-15T13:17:33;15.90;99.90
7399;DHT22;3740;50.700;7.184;2022-11-15T13:20:09;16.00;99.90
7399;DHT22;3740;50.700;7.184;2022-11-15T13:22:44;16.10;99.90
7399;DHT22;3740;50.700;7.184;2022-11-15T13:28:20;16.10;99.90
7399;DHT22;3740;50.700;7.184;2022-11-15T13:33:28;16.00;99.90
7399;DHT22;3740;50.700;7.184;2022-11-15T13:35:58;15.90;99.90
7399;DHT22;3740;50.700;7.184;2022-11-15T13:38:33;15.90;99.90
7399;DHT22;3740;50.700;7.184;2022-11-15T13:43:41;15.60;99.90
7399;DHT22;3740;50.700;7.184;2022-11-15T13:46:20;15.60;99.90
7399;DHT22;3740;50.700;7.184;2022-11-15T13:48:54;15.70;99.90
7399;DHT22;3740;50.700;7.184;2022-11-15T13:51:47;15.70;99.90
7399;DHT22;3740;50.700;7.184;2022-11-15T13:54:35;15.60;99.90
7399;DHT22;3740;50.700;7.184;2022-11-15T13:57:21;15.60;99.90
7399;DHT22;3740;50.700;7.184;2022-11-15T14:02:19;15.60;99.90
7399;DHT22;3740;50.700;7.184;2022-11-15T14:04:49;15.60;99.90
7399;DHT22;3740;50.700;7.184;2022-11-15T14:07:21;15.70;99.90
7399;DHT22;3740;50.700;7.184;2022-11-15T14:09:47;15.70;99.90
7399;DHT22;3740;50.700;7.184;2022-11-15T14:12:35;15.60;99.90
7399;DHT22;3740;50.700;7.184;2022-11-15T14:15:31;15.60;99.90
7399;DHT22;3740;50.700;7.184;2022-11-15T14:17:57;15.70;99.90
7399;DHT22;3740;50.700;7.184;2022-11-15T14:20:33;15.80;99.90
7399;DHT22;3740;50.700;7.184;2022-11-15T14:23:19;15.80;99.90
7399;DHT22;3740;50.700;7.184;2022-11-15T14:25:58;15.80;99.90
7399;DHT22;3740;50.700;7.184;2022-11-15T14:30:52;15.80;99.90
7399;DHT22;3740;50.700;7.184;2022-11-15T14:33:25;15.70;99.90
7399;DHT22;3740;50.700;7.184;2022-11-15T14:35:54;15.60;99.90
7399;DHT22;3740;50.700;7.184;2022-11-15T14:38:21;15.50;99.90
7399;DHT22;3740;50.700;7.184;2022-11-15T14:40:48;15.50;99.90
7399;DHT22;3740;50.700;7.184;2022-11-15T14:43:14;15.30;99.90
7399;DHT22;3740;50.700;7.184;2022-11-15T14:45:40;15.30;99.90
7399;DHT22;3740;50.700;7.184;2022-11-15T14:48:06;15.30;99.90
7399;DHT22;3740;50.700;7.184;2022-11-15T14:50:32;15.40;99.90
7399;DHT22;3740;50.700;7.184;2022-11-15T14:52:59;15.40;99.90
7399;DHT22;3740;50.700;7.184;2022-11-15T14:55:27;15.40;99.90
7399;DHT22;3740;50.700;7.184;2022-11-15T14:57:54;15.40;99.90
7399;DHT22;3740;50.700;7.184;2022-11-15T15:00:21;15.40;99.90
7399;DHT22;3740;50.700;7.184;2022-11-15T15:02:47;15.30;99.90
7399;DHT22;3740;50.700;7.184;2022-11-15T15:05:19;15.40;99.90
7399;DHT22;3740;50.700;7.184;2022-11-15T15:07:45;15.40;99.90
7399;DHT22;3740;50.700;7.184;2022-11-15T15:10:12;15.40;99.90
7399;DHT22;3740;50.700;7.184;2022-11-15T15:12:39;15.40;99.90
7399;DHT22;3740;50.700;7.184;2022-11-15T15:15:05;15.30;99.90
7399;DHT22;3740;50.700;7.184;2022-11-15T15:17:31;15.20;99.90
7399;DHT22;3740;50.700;7.184;2022-11-15T15:19:57;15.20;99.90
7399;DHT22;3740;50.700;7.184;2022-11-15T15:22:25;15.20;99.90
7399;DHT22;3740;50.700;7.184;2022-11-15T15:24:53;15.10;99.90
7399;DHT22;3740;50.700;7.184;2022-11-15T15:27:18;15.00;99.90
7399;DHT22;3740;50.700;7.184;2022-11-15T15:29:45;15.00;99.90
7399;DHT22;3740;50.700;7.184;2022-11-15T15:32:10;14.90;99.90
7399;DHT22;3740;50.700;7.184;2022-11-15T15:34:36;14.90;99.90
7399;DHT22;3740;50.700;7.184;2022-11-15T15:39:48;14.90;99.90
7399;DHT22;3740;50.700;7.184;2022-11-15T15:42:18;14.90;99.90
7399;DHT22;3740;50.700;7.184;2022-11-15T15:44:45;14.80;99.90
7399;DHT22;3740;50.700;7.184;2022-11-15T15:47:14;14.80;99.90
7399;DHT22;3740;50.700;7.184;2022-11-15T15:49:40;14.70;99.90
7399;DHT22;3740;50.700;7.184;2022-11-15T15:52:06;14.70;99.90
7399;DHT22;3740;50.700;7.184;2022-11-15T15:54:33;14.70;99.90
7399;DHT22;3740;50.700;7.184;2022-11-15T15:56:59;14.70;99.90
7399;DHT22;3740;50.700;7.184;2022-11-15T15:59:25;14.70;99.90
7399;DHT22;3740;50.700;7.184;2022-11-15T16:01:51;14.60;99.90
7399;DHT22;3740;50.700;7.184;2022-11-15T16:04:18;14.60;99.90
7399;DHT22;3740;50.700;7.184;2022-11-15T16:06:44;14.60;99.90
7399;DHT22;3740;50.700;7.184;2022-11-15T16:09:15;14.60;99.90
7399;DHT22;3740;50.700;7.184;2022-11-15T16:11:45;14.60;99.90
7399;DHT22;3740;50.700;7.184;2022-11-15T16:14:12;14.70;99.90
7399;DHT22;3740;50.700;7.184;2022-11-15T16:16:47;14.70;99.90
7399;DHT22;3740;50.700;7.184;2022-11-15T16:19:14;14.60;99.90
7399;DHT22;3740;50.700;7.184;2022-11-15T16:21:40;14.60;99.90
7399;DHT22;3740;50.700;7.184;2022-11-15T16:24:05;14.60;99.90
7399;DHT22;3740;50.700;7.184;2022-11-15T16:26:32;14.60;99.90
7399;DHT22;3740;50.700;7.184;2022-11-15T16:29:00;14.60;99.90
7399;DHT22;3740;50.700;7.184;2022-11-15T16:31:26;14.60;99.90
7399;DHT22;3740;50.700;7.184;2022-11-15T16:33:52;14.60;99.90
7399;DHT22;3740;50.700;7.184;2022-11-15T16:36:23;14.60;99.90
7399;DHT22;3740;50.700;7.184;2022-11-15T16:38:49;14.60;99.90
7399;DHT22;3740;50.700;7.184;2022-11-15T16:41:16;14.60;99.90
7399;DHT22;3740;50.700;7.184;2022-11-15T16:43:46;14.60;99.90
7399;DHT22;3740;50.700;7.184;2022-11-15T16:46:32;14.60;99.90
7399;DHT22;3740;50.700;7.184;2022-11-15T16:48:57;14.60;99.90
7399;DHT22;3740;50.700;7.184;2022-11-15T16:51:23;14.60;99.90
7399;DHT22;3740;50.700;7.184;2022-11-15T16:53:49;14.50;99.90
7399;DHT22;3740;50.700;7.184;2022-11-15T16:56:28;14.60;99.90
7399;DHT22;3740;50.700;7.184;2022-11-15T16:58:55;14.60;99.90
7399;DHT22;3740;50.700;7.184;2022-11-15T17:01:33;14.60;99.90
7399;DHT22;3740;50.700;7.184;2022-11-15T17:04:11;14.60;99.90
7399;DHT22;3740;50.700;7.184;2022-11-15T17:06:38;14.60;99.90
7399;DHT22;3740;50.700;7.184;2022-11-15T17:09:05;14.60;99.90
7399;DHT22;3740;50.700;7.184;2022-11-15T17:11:31;14.60;99.90
7399;DHT22;3740;50.700;7.184;2022-11-15T17:13:57;14.50;99.90
7399;DHT22;3740;50.700;7.184;2022-11-15T17:16:24;14.60;99.90
7399;DHT22;3740;50.700;7.184;2022-11-15T17:18:51;14.60;99.90
7399;DHT22;3740;50.700;7.184;2022-11-15T17:21:20;14.60;99.90
7399;DHT22;3740;50.700;7.184;2022-11-15T17:23:47;14.50;99.90
7399;DHT22;3740;50.700;7.184;2022-11-15T17:26:14;14.50;99.90
7399;DHT22;3740;50.700;7.184;2022-11-15T17:28:40;14.50;99.90
7399;DHT22;3740;50.700;7.184;2022-11-15T17:31:08;14.50;99.90
7399;DHT22;3740;50.700;7.184;2022-11-15T17:33:35;14.50;99.90
7399;DHT22;3740;50.700;7.184;2022-11-15T17:36:04;14.50;99.90
7399;DHT22;3740;50.700;7.184;2022-11-15T17:38:31;14.50;99.90
7399;DHT22;3740;50.700;7.184;2022-11-15T17:41:07;14.50;99.90
7399;DHT22;3740;50.700;7.184;2022-11-15T17:43:35;14.50;99.90
7399;DHT22;3740;50.700;7.184;2022-11-15T17:46:04;14.40;99.90
7399;DHT22;3740;50.700;7.184;2022-11-15T17:48:34;14.40;99.90
7399;DHT22;3740;50.700;7.184;2022-11-15T17:51:01;14.40;99.90
7399;DHT22;3740;50.700;7.184;2022-11-15T17:53:32;14.40;99.90
7399;DHT22;3740;50.700;7.184;2022-11-15T17:56:13;14.40;99.90
7399;DHT22;3740;50.700;7.184;2022-11-15T17:58:39;14.40;99.90
7399;DHT22;3740;50.700;7.184;2022-11-15T18:03:35;14.40;99.90
7399;DHT22;3740;50.700;7.184;2022-11-15T18:06:03;14.30;99.90
7399;DHT22;3740;50.700;7.184;2022-11-15T18:08:29;14.30;99.90
7399;DHT22;3740;50.700;7.184;2022-11-15T18:11:03;14.20;99.90
7399;DHT22;3740;50.700;7.184;2022-11-15T18:13:29;14.20;99.90
7399;DHT22;3740;50.700;7.184;2022-11-15T18:15:56;14.20;99.90
7399;DHT22;3740;50.700;7.184;2022-11-15T18:18:29;14.20;99.90